createdAt,value
2019-01-27T00:00:20.543Z,91.28
2019-01-27T00:01:19.901Z,90.97
2019-01-27T00:02:27.942Z,90.87
2019-01-27T00:03:19.876Z,91.17
2019-01-27T00:04:19.607Z,90.97
2019-01-27T00:05:20.601Z,90.66
2019-01-27T00:06:19.838Z,90.45
2019-01-27T00:07:19.912Z,90.62
2019-01-27T00:08:20.207Z,90.93
2019-01-27T00:09:29.520Z,90.45
2019-01-27T00:10:19.564Z,90.35
2019-01-27T00:11:18.987Z,90.25
2019-01-27T00:12:19.955Z,90.52
2019-01-27T00:13:19.671Z,90.00
2019-01-27T00:14:20.908Z,90.31
2019-01-27T00:15:19.823Z,90.00
2019-01-27T00:16:19.814Z,90.14
2019-01-27T00:17:18.868Z,90.04
2019-01-27T00:18:20.982Z,89.79
2019-01-27T00:19:19.925Z,90.41
2019-01-27T00:20:19.757Z,89.89
2019-01-27T00:21:20.356Z,90.20
2019-01-27T00:22:20.325Z,90.45
2019-01-27T00:23:20.095Z,90.41
2019-01-27T00:24:24.232Z,90.41
2019-01-27T00:25:20.338Z,90.35
2019-01-27T00:26:19.421Z,90.31
2019-01-27T00:27:20.060Z,90.35
2019-01-27T00:28:20.632Z,90.10
2019-01-27T00:29:19.568Z,90.20
2019-01-27T00:30:20.435Z,89.94
2019-01-27T00:31:19.932Z,90.00
2019-01-27T00:32:22.525Z,90.31
2019-01-27T00:33:22.800Z,90.41
2019-01-27T00:34:20.785Z,90.31
2019-01-27T00:35:20.080Z,90.62
2019-01-27T00:36:48.491Z,90.62
2019-01-27T00:37:19.975Z,90.31
2019-01-27T00:38:19.603Z,90.83
2019-01-27T00:39:21.357Z,91.34
2019-01-27T00:40:20.044Z,90.83
2019-01-27T00:41:18.604Z,90.83
2019-01-27T00:42:18.597Z,90.93
2019-01-27T00:43:18.932Z,91.24
2019-01-27T00:44:19.594Z,91.24
2019-01-27T00:45:19.222Z,91.65
2019-01-27T00:46:19.132Z,91.75
2019-01-27T00:47:18.374Z,91.44
2019-01-27T00:48:18.650Z,91.86
2019-01-27T00:49:19.218Z,91.96
2019-01-27T00:50:18.566Z,92.17
2019-01-27T00:51:18.948Z,92.07
2019-01-27T00:52:19.013Z,93.62
2019-01-27T00:53:19.112Z,94.03
2019-01-27T00:54:18.940Z,93.45
2019-01-27T00:55:18.401Z,93.20
2019-01-27T00:56:18.783Z,93.35
2019-01-27T00:58:19.538Z,93.45
2019-01-27T00:59:20.319Z,94.07
2019-01-27T01:00:18.400Z,93.97
2019-01-27T01:01:18.950Z,93.93
2019-01-27T01:02:18.688Z,95.00
2019-01-27T01:03:18.800Z,94.48
2019-01-27T01:04:18.348Z,94.59
2019-01-27T01:05:18.962Z,94.69
2019-01-27T01:06:18.251Z,94.38
2019-01-27T01:07:18.320Z,94.69
2019-01-27T01:08:18.564Z,94.59
2019-01-27T01:09:18.768Z,94.59
2019-01-27T01:10:18.472Z,94.48
2019-01-27T01:11:18.457Z,94.79
2019-01-27T01:12:20.518Z,94.48
2019-01-27T01:13:18.626Z,94.90
2019-01-27T01:14:18.146Z,95.21
2019-01-27T01:15:18.258Z,95.10
2019-01-27T01:16:19.099Z,95.21
2019-01-27T01:17:18.285Z,95.52
2019-01-27T01:18:18.231Z,95.52
2019-01-27T01:19:18.418Z,95.31
2019-01-27T01:20:18.253Z,95.62
2019-01-27T01:21:18.436Z,95.67
2019-01-27T01:22:19.344Z,95.83
2019-01-27T01:23:19.182Z,96.08
2019-01-27T01:24:18.168Z,96.29
2019-01-27T01:25:18.513Z,95.52
2019-01-27T01:26:19.379Z,95.77
2019-01-27T01:27:18.287Z,96.08
2019-01-27T01:28:18.967Z,96.24
2019-01-27T01:29:18.980Z,95.67
2019-01-27T01:30:18.110Z,95.46
2019-01-27T01:31:18.229Z,95.36
2019-01-27T01:32:19.460Z,95.67
2019-01-27T01:33:18.682Z,95.67
2019-01-27T01:34:20.268Z,95.56
2019-01-27T01:35:18.456Z,95.77
2019-01-27T01:36:18.627Z,95.87
2019-01-27T01:37:21.132Z,95.77
2019-01-27T01:38:21.172Z,96.08
2019-01-27T01:39:22.315Z,96.19
2019-01-27T01:40:19.127Z,95.87
2019-01-27T01:41:19.103Z,96.19
2019-01-27T01:42:21.027Z,96.59
2019-01-27T01:43:18.884Z,96.29
2019-01-27T01:44:22.580Z,96.70
2019-01-27T01:45:28.700Z,96.14
2019-01-27T01:46:21.336Z,95.83
2019-01-27T01:47:22.021Z,96.66
2019-01-27T01:48:20.551Z,96.39
2019-01-27T01:49:18.445Z,97.32
2019-01-27T01:50:18.920Z,96.49
2019-01-27T01:51:19.007Z,96.59
2019-01-27T01:52:19.834Z,96.49
2019-01-27T01:53:17.730Z,97.01
2019-01-27T01:54:18.595Z,97.32
2019-01-27T01:55:19.586Z,97.11
2019-01-27T01:56:19.284Z,97.22
2019-01-27T01:57:17.980Z,96.80
2019-01-27T01:58:17.960Z,97.11
2019-01-27T01:59:18.135Z,97.42
2019-01-27T02:00:18.811Z,97.32
2019-01-27T02:01:18.001Z,97.63
2019-01-27T02:02:20.457Z,97.32
2019-01-27T02:03:18.585Z,97.42
2019-01-27T02:04:19.542Z,97.47
2019-01-27T02:05:18.536Z,97.32
2019-01-27T02:06:18.436Z,97.11
2019-01-27T02:07:17.876Z,97.42
2019-01-27T02:08:18.555Z,97.32
2019-01-27T02:09:17.638Z,97.01
2019-01-27T02:10:18.297Z,97.11
2019-01-27T02:11:17.676Z,96.44
2019-01-27T02:12:17.832Z,96.08
2019-01-27T02:13:18.686Z,96.49
2019-01-27T02:14:17.678Z,96.59
2019-01-27T02:15:17.949Z,97.32
2019-01-27T02:16:17.728Z,97.42
2019-01-27T02:17:17.676Z,97.63
2019-01-27T02:18:17.748Z,97.53
2019-01-27T02:19:17.732Z,97.32
2019-01-27T02:20:17.905Z,97.99
2019-01-27T02:21:18.824Z,97.99
2019-01-27T02:22:17.812Z,98.30
2019-01-27T02:23:17.442Z,97.84
2019-01-27T02:24:17.560Z,97.94
2019-01-27T02:25:17.698Z,97.99
2019-01-27T02:26:17.953Z,98.40
2019-01-27T02:27:18.033Z,97.99
2019-01-27T02:28:17.573Z,98.40
2019-01-27T02:29:18.212Z,98.40
2019-01-27T02:30:17.473Z,98.19
2019-01-27T02:31:18.282Z,98.09
2019-01-27T02:32:17.815Z,97.99
2019-01-27T02:33:17.493Z,98.61
2019-01-27T02:34:19.113Z,98.40
2019-01-27T02:35:17.969Z,98.50
2019-01-27T02:36:17.656Z,98.61
2019-01-27T02:37:17.391Z,98.09
2019-01-27T02:38:17.565Z,98.09
2019-01-27T02:39:17.613Z,98.40
2019-01-27T02:40:17.273Z,98.50
2019-01-27T02:41:17.851Z,98.40
2019-01-27T02:42:17.790Z,98.61
2019-01-27T02:43:17.342Z,97.99
2019-01-27T02:44:17.997Z,98.50
2019-01-27T02:45:17.336Z,98.25
2019-01-27T02:46:17.686Z,97.99
2019-01-27T02:47:17.398Z,97.42
2019-01-27T02:48:17.608Z,97.74
2019-01-27T02:49:17.847Z,97.22
2019-01-27T02:50:17.337Z,97.63
2019-01-27T02:51:17.253Z,96.80
2019-01-27T02:52:17.618Z,96.80
2019-01-27T02:53:17.395Z,97.22
2019-01-27T02:54:17.274Z,97.32
2019-01-27T02:55:17.131Z,96.49
2019-01-27T02:56:17.453Z,95.94
2019-01-27T02:57:17.169Z,96.49
2019-01-27T02:58:17.053Z,95.94
2019-01-27T02:59:17.045Z,95.52
2019-01-27T03:00:16.996Z,95.67
2019-01-27T03:01:16.936Z,96.03
2019-01-27T03:02:17.013Z,96.14
2019-01-27T03:03:17.385Z,95.83
2019-01-27T03:04:17.266Z,96.24
2019-01-27T03:05:17.217Z,96.24
2019-01-27T03:06:17.076Z,95.73
2019-01-27T03:07:17.074Z,95.67
2019-01-27T03:08:16.920Z,95.73
2019-01-27T03:09:17.058Z,96.24
2019-01-27T03:10:17.079Z,96.24
2019-01-27T03:11:17.223Z,96.19
2019-01-27T03:12:17.666Z,95.67
2019-01-27T03:13:16.909Z,96.03
2019-01-27T03:14:17.121Z,95.77
2019-01-27T03:15:17.090Z,95.56
2019-01-27T03:16:16.958Z,95.52
2019-01-27T03:17:16.797Z,95.56
2019-01-27T03:18:16.738Z,95.62
2019-01-27T03:19:16.820Z,95.46
2019-01-27T03:20:16.816Z,95.46
2019-01-27T03:21:16.878Z,95.62
2019-01-27T03:22:17.008Z,95.67
2019-01-27T03:23:16.799Z,95.04
2019-01-27T03:24:16.834Z,95.15
2019-01-27T03:25:17.069Z,95.42
2019-01-27T03:26:16.733Z,95.31
2019-01-27T03:27:16.685Z,94.79
2019-01-27T03:28:16.781Z,95.00
2019-01-27T03:29:16.795Z,95.00
2019-01-27T03:30:17.148Z,94.90
2019-01-27T03:31:16.753Z,94.79
2019-01-27T03:32:16.634Z,94.18
2019-01-27T03:33:16.670Z,93.14
2019-01-27T03:34:16.762Z,92.89
2019-01-27T03:35:16.591Z,93.66
2019-01-27T03:36:16.747Z,93.97
2019-01-27T03:37:16.734Z,93.14
2019-01-27T03:38:17.574Z,93.76
2019-01-27T03:39:16.605Z,93.20
2019-01-27T03:40:16.677Z,92.93
2019-01-27T03:41:16.554Z,93.55
2019-01-27T03:42:16.577Z,93.45
2019-01-27T03:43:16.579Z,92.93
2019-01-27T03:44:16.610Z,93.41
2019-01-27T03:45:16.507Z,92.32
2019-01-27T03:46:16.517Z,91.96
2019-01-27T03:47:16.500Z,92.11
2019-01-27T03:48:16.540Z,92.27
2019-01-27T03:49:16.625Z,92.27
2019-01-27T03:50:16.569Z,91.55
2019-01-27T03:51:16.460Z,91.34
2019-01-27T03:52:16.493Z,91.75
2019-01-27T03:53:16.429Z,90.83
2019-01-27T03:54:16.357Z,90.93
2019-01-27T03:55:16.414Z,91.03
2019-01-27T03:56:16.675Z,90.72
2019-01-27T03:57:16.425Z,91.24
2019-01-27T03:58:16.363Z,91.75
2019-01-27T03:59:16.362Z,91.13
2019-01-27T04:00:16.392Z,91.13
2019-01-27T04:01:16.339Z,91.03
2019-01-27T04:02:16.439Z,91.55
2019-01-27T04:03:16.383Z,92.17
2019-01-27T04:04:16.337Z,92.27
2019-01-27T04:05:16.544Z,92.58
2019-01-27T04:06:16.335Z,92.48
2019-01-27T04:07:16.277Z,93.04
2019-01-27T04:08:16.650Z,92.99
2019-01-27T04:09:16.627Z,93.20
2019-01-27T04:10:16.261Z,93.04
2019-01-27T04:11:16.246Z,92.89
2019-01-27T04:12:16.292Z,93.72
2019-01-27T04:13:16.259Z,93.62
2019-01-27T04:14:16.207Z,93.62
2019-01-27T04:15:16.389Z,93.76
2019-01-27T04:16:16.229Z,93.55
2019-01-27T04:17:16.357Z,93.55
2019-01-27T04:18:16.258Z,93.35
2019-01-27T04:19:16.185Z,93.87
2019-01-27T04:20:16.344Z,94.48
2019-01-27T04:21:16.139Z,93.93
2019-01-27T04:22:16.189Z,93.30
2019-01-27T04:23:16.126Z,93.45
2019-01-27T04:24:16.070Z,93.87
2019-01-27T04:25:16.159Z,95.17
2019-01-27T04:26:16.343Z,94.59
2019-01-27T04:27:16.237Z,94.38
2019-01-27T04:28:16.355Z,95.42
2019-01-27T04:29:16.146Z,95.42
2019-01-27T04:30:16.283Z,95.52
2019-01-27T04:31:17.407Z,95.42
2019-01-27T04:32:17.054Z,95.62
2019-01-27T04:33:16.660Z,95.31
2019-01-27T04:34:18.534Z,95.52
2019-01-27T04:35:18.371Z,95.94
2019-01-27T04:36:17.644Z,96.24
2019-01-27T04:37:19.748Z,96.08
2019-01-27T04:38:21.881Z,96.66
2019-01-27T04:39:21.997Z,96.24
2019-01-27T04:40:40.473Z,97.32
2019-01-27T04:42:24.316Z,97.01
2019-01-27T06:09:02.705Z,98.96
2019-01-27T06:10:02.662Z,98.30
2019-01-27T06:11:02.621Z,98.92
2019-01-27T06:12:02.583Z,99.27
2019-01-27T06:13:02.576Z,99.17
2019-01-27T06:14:02.638Z,99.27
2019-01-27T06:15:02.562Z,99.58
2019-01-27T06:16:02.553Z,99.17
2019-01-27T06:17:02.560Z,99.38
2019-01-27T06:18:02.585Z,99.48
2019-01-27T06:19:02.579Z,99.43
2019-01-27T06:20:02.527Z,99.17
2019-01-27T06:21:10.068Z,99.38
2019-01-27T06:22:02.495Z,99.43
2019-01-27T06:23:10.024Z,98.96
2019-01-27T06:24:02.513Z,99.27
2019-01-27T06:25:02.457Z,99.38
2019-01-27T06:26:10.059Z,99.07
2019-01-27T06:27:02.468Z,99.99
2019-01-27T06:28:09.961Z,99.99
2019-01-27T06:29:02.408Z,99.69
2019-01-27T06:30:02.421Z,99.38
2019-01-27T06:31:02.440Z,99.90
2019-01-27T06:32:02.408Z,99.13
2019-01-27T06:33:09.956Z,99.48
2019-01-27T06:34:02.407Z,98.82
2019-01-27T06:35:09.939Z,98.55
2019-01-27T06:36:02.395Z,97.78
2019-01-27T06:37:02.506Z,98.13
2019-01-27T06:38:02.326Z,97.52
2019-01-27T06:39:02.295Z,98.34
2019-01-27T06:40:02.299Z,97.67
2019-01-27T06:41:02.277Z,98.61
2019-01-27T06:42:02.323Z,99.74
2019-01-27T06:43:02.255Z,99.13
2019-01-27T06:44:02.245Z,99.07
2019-01-27T06:45:02.233Z,99.38
2019-01-27T06:46:02.267Z,99.23
2019-01-27T06:47:02.252Z,99.33
2019-01-27T06:48:02.209Z,99.17
2019-01-27T06:49:09.792Z,99.13
2019-01-27T06:50:02.398Z,99.23
2019-01-27T06:51:02.222Z,99.33
2019-01-27T06:52:02.220Z,99.64
2019-01-27T06:53:02.212Z,99.02
2019-01-27T06:54:09.702Z,98.71
2019-01-27T06:55:02.150Z,98.40
2019-01-27T06:56:02.151Z,98.40
2019-01-27T06:57:02.149Z,98.50
2019-01-27T06:58:02.138Z,98.09
2019-01-27T06:59:02.115Z,98.19
2019-01-27T07:00:02.087Z,98.19
2019-01-27T07:01:02.080Z,98.35
2019-01-27T07:02:02.078Z,98.19
2019-01-27T07:03:09.625Z,98.09
2019-01-27T07:04:02.074Z,98.30
2019-01-27T07:05:10.725Z,97.57
2019-01-27T07:06:02.029Z,97.36
2019-01-27T07:07:09.613Z,97.36
2019-01-27T07:08:02.084Z,97.36
2019-01-27T07:09:02.030Z,97.57
2019-01-27T07:10:09.532Z,97.88
2019-01-27T07:11:01.971Z,98.05
2019-01-27T07:12:09.550Z,98.56
2019-01-27T07:13:01.976Z,98.40
2019-01-27T07:14:01.950Z,97.78
2019-01-27T07:15:01.928Z,98.50
2019-01-27T07:16:01.950Z,98.50
2019-01-27T07:17:01.915Z,98.30
2019-01-27T07:18:01.929Z,98.30
2019-01-27T07:19:01.904Z,98.82
2019-01-27T07:20:01.870Z,98.82
2019-01-27T07:21:01.907Z,98.50
2019-01-27T07:22:01.851Z,98.09
2019-01-27T07:23:01.874Z,97.57
2019-01-27T07:24:09.383Z,97.36
2019-01-27T07:25:01.885Z,97.42
2019-01-27T07:26:09.370Z,98.19
2019-01-27T07:27:01.842Z,98.30
2019-01-27T07:28:01.822Z,98.35
2019-01-27T07:29:01.791Z,98.35
2019-01-27T07:30:01.829Z,97.99
2019-01-27T07:31:01.768Z,97.88
2019-01-27T07:32:01.785Z,98.50
2019-01-27T07:33:01.782Z,97.94
2019-01-27T07:34:01.775Z,98.05
2019-01-27T07:35:01.735Z,98.25
2019-01-27T07:36:01.732Z,98.46
2019-01-27T07:37:01.717Z,97.74
2019-01-27T07:38:01.789Z,98.56
2019-01-27T07:39:01.720Z,98.25
2019-01-27T07:40:09.265Z,98.50
2019-01-27T07:41:01.713Z,98.61
2019-01-27T07:42:01.684Z,98.71
2019-01-27T07:43:09.252Z,98.40
2019-01-27T07:44:01.659Z,98.50
2019-01-27T07:45:01.636Z,98.19
2019-01-27T07:46:01.625Z,98.50
2019-01-27T07:47:01.596Z,97.78
2019-01-27T07:48:01.602Z,98.19
2019-01-27T07:49:09.149Z,98.09
2019-01-27T07:50:01.614Z,98.40
2019-01-27T07:51:01.592Z,98.09
2019-01-27T07:52:01.588Z,98.61
2019-01-27T07:53:01.535Z,98.50
2019-01-27T07:54:09.120Z,98.61
2019-01-27T07:55:01.543Z,98.61
2019-01-27T07:56:01.519Z,98.50
2019-01-27T07:57:01.504Z,98.82
2019-01-27T07:58:01.527Z,98.92
2019-01-27T07:59:01.495Z,98.71
2019-01-27T08:00:01.481Z,99.33
2019-01-27T08:01:01.508Z,99.02
2019-01-27T08:02:01.466Z,99.54
2019-01-27T08:03:01.444Z,98.92
2019-01-27T08:04:01.459Z,99.74
2019-01-27T08:05:01.416Z,99.13
2019-01-27T08:06:01.425Z,99.23
2019-01-27T08:07:01.393Z,98.92
2019-01-27T08:08:01.402Z,99.13
2019-01-27T08:09:01.416Z,98.92
2019-01-27T08:10:01.373Z,98.82
2019-01-27T08:11:01.380Z,98.50
2019-01-27T08:12:01.355Z,98.56
2019-01-27T08:13:01.358Z,98.56
2019-01-27T08:14:01.368Z,98.56
2019-01-27T08:15:01.345Z,98.56
2019-01-27T08:16:01.333Z,99.04
2019-01-27T08:17:01.293Z,98.05
2019-01-27T08:18:01.292Z,98.35
2019-01-27T08:19:01.301Z,98.25
2019-01-27T08:20:01.268Z,98.35
2019-01-27T08:21:01.288Z,98.56
2019-01-27T08:22:01.257Z,98.56
2019-01-27T08:23:01.242Z,98.72
2019-01-27T08:24:01.273Z,98.97
2019-01-27T08:25:01.260Z,99.39
2019-01-27T08:26:01.243Z,99.39
2019-01-27T08:27:01.222Z,99.99
2019-01-27T08:28:01.180Z,99.39
2019-01-27T08:29:01.186Z,99.60
2019-01-27T08:30:01.192Z,99.18
2019-01-27T08:31:01.162Z,99.18
2019-01-27T08:32:01.154Z,98.83
2019-01-27T08:33:01.154Z,98.62
2019-01-27T08:34:01.149Z,98.25
2019-01-27T08:35:01.130Z,98.46
2019-01-27T08:36:01.139Z,98.31
2019-01-27T08:37:01.144Z,98.21
2019-01-27T08:38:01.087Z,97.79
2019-01-27T08:39:01.082Z,97.49
2019-01-27T08:40:01.125Z,98.46
2019-01-27T08:41:01.058Z,98.62
2019-01-27T08:42:01.059Z,98.41
2019-01-27T08:43:01.031Z,98.00
2019-01-27T08:44:01.024Z,98.00
2019-01-27T08:45:01.056Z,97.49
2019-01-27T08:46:01.067Z,97.07
2019-01-27T08:47:01.025Z,97.69
2019-01-27T08:48:01.050Z,97.89
2019-01-27T08:49:01.022Z,97.38
2019-01-27T08:50:00.970Z,97.59
2019-01-27T08:51:00.981Z,97.49
2019-01-27T08:52:01.020Z,97.59
2019-01-27T08:53:00.942Z,97.38
2019-01-27T08:54:00.960Z,97.59
2019-01-27T08:55:00.938Z,97.49
2019-01-27T08:56:00.937Z,97.59
2019-01-27T08:57:00.917Z,97.17
2019-01-27T08:58:00.887Z,96.97
2019-01-27T08:59:00.926Z,97.17
2019-01-27T09:00:08.414Z,96.86
2019-01-27T09:01:00.958Z,97.28
2019-01-27T09:02:00.853Z,97.17
2019-01-27T09:03:00.886Z,97.07
2019-01-27T09:04:00.855Z,97.59
2019-01-27T09:05:00.869Z,97.28
2019-01-27T09:06:00.826Z,97.28
2019-01-27T09:07:00.807Z,98.31
2019-01-27T09:08:00.773Z,98.37
2019-01-27T09:09:00.793Z,98.06
2019-01-27T09:10:00.754Z,97.89
2019-01-27T09:11:00.784Z,97.38
2019-01-27T09:12:00.744Z,97.28
2019-01-27T09:13:00.787Z,97.38
2019-01-27T09:14:00.748Z,97.17
2019-01-27T09:15:08.276Z,97.28
2019-01-27T09:16:00.754Z,97.54
2019-01-27T09:17:00.730Z,97.69
2019-01-27T09:18:00.682Z,97.44
2019-01-27T09:19:00.664Z,96.34
2019-01-27T09:20:00.674Z,97.07
2019-01-27T09:21:00.671Z,97.59
2019-01-27T09:22:01.461Z,97.17
2019-01-27T09:23:09.219Z,96.24
2019-01-27T09:24:00.677Z,96.34
2019-01-27T09:25:00.624Z,96.55
2019-01-27T09:26:00.639Z,95.52
2019-01-27T09:27:00.623Z,95.42
2019-01-27T09:28:00.682Z,95.62
2019-01-27T09:29:00.572Z,95.27
2019-01-27T09:30:00.561Z,96.09
2019-01-27T09:31:00.539Z,96.82
2019-01-27T09:32:00.530Z,95.83
2019-01-27T09:33:00.537Z,95.99
2019-01-27T09:34:00.512Z,96.20
2019-01-27T09:35:00.505Z,96.55
2019-01-27T09:36:00.509Z,97.02
2019-01-27T09:37:00.477Z,96.92
2019-01-27T09:38:00.486Z,96.72
2019-01-27T09:39:00.460Z,95.78
2019-01-27T09:40:00.442Z,95.06
2019-01-27T09:41:00.444Z,95.21
2019-01-27T09:42:00.419Z,95.89
2019-01-27T09:43:00.430Z,96.51
2019-01-27T09:44:00.400Z,97.13
2019-01-27T09:45:00.403Z,96.51
2019-01-27T09:46:05.546Z,96.61
2019-01-27T09:47:01.369Z,96.03
2019-01-27T09:48:00.384Z,96.09
2019-01-27T09:49:00.356Z,97.44
2019-01-27T09:50:00.361Z,97.02
2019-01-27T09:51:00.331Z,97.02
2019-01-27T09:52:00.317Z,97.54
2019-01-27T09:53:00.311Z,97.28
2019-01-27T09:54:00.326Z,97.28
2019-01-27T09:55:00.282Z,97.13
2019-01-27T09:56:00.273Z,94.96
2019-01-27T09:57:00.265Z,95.17
2019-01-27T09:58:00.250Z,93.82
2019-01-27T09:59:07.994Z,95.06
2019-01-27T10:00:00.294Z,95.64
2019-01-27T10:01:00.215Z,95.64
2019-01-27T10:02:07.763Z,95.32
2019-01-27T10:03:00.215Z,95.74
2019-01-27T10:04:00.239Z,95.37
2019-01-27T10:05:07.750Z,91.50
2019-01-27T10:06:00.191Z,92.95
2019-01-27T10:07:07.729Z,93.05
2019-01-27T10:08:00.172Z,93.05
2019-01-27T10:09:07.717Z,93.68
2019-01-27T10:10:00.229Z,92.95
2019-01-27T10:11:00.136Z,91.82
2019-01-27T10:12:00.132Z,93.26
2019-01-27T10:13:00.092Z,91.82
2019-01-27T10:14:02.755Z,90.95
2019-01-27T10:15:00.203Z,90.74
2019-01-27T10:16:00.065Z,90.95
2019-01-27T10:17:00.064Z,91.16
2019-01-27T10:18:07.682Z,92.19
2019-01-27T10:19:00.644Z,90.84
2019-01-27T10:20:00.300Z,91.67
2019-01-27T10:21:02.962Z,91.67
2019-01-27T10:22:00.001Z,91.36
2019-01-27T10:23:01.193Z,93.01
2019-01-27T10:23:59.989Z,93.94
2019-01-27T10:25:00.298Z,93.32
2019-01-27T10:26:00.033Z,93.53
2019-01-27T10:26:59.952Z,93.73
2019-01-27T10:27:59.936Z,93.43
2019-01-27T10:29:07.484Z,90.53
2019-01-27T10:29:59.956Z,93.32
2019-01-27T10:31:00.601Z,91.98
2019-01-27T10:32:07.455Z,91.67
2019-01-27T10:33:01.132Z,91.88
2019-01-27T10:33:59.923Z,91.77
2019-01-27T10:35:09.712Z,92.70
2019-01-27T10:35:59.978Z,92.91
2019-01-27T10:36:59.937Z,91.98
2019-01-27T10:37:59.963Z,91.88
2019-01-27T10:38:59.838Z,90.84
2019-01-27T10:39:59.811Z,90.84
2019-01-27T10:40:59.821Z,90.95
2019-01-27T10:41:59.799Z,90.28
2019-01-27T10:42:59.782Z,88.74
2019-01-27T10:44:07.342Z,90.70
2019-01-27T10:44:59.783Z,90.08
2019-01-27T10:46:07.346Z,90.28
2019-01-27T10:46:59.767Z,91.11
2019-01-27T10:47:59.766Z,91.22
2019-01-27T10:48:59.790Z,91.05
2019-01-27T10:49:59.842Z,91.26
2019-01-27T10:51:07.388Z,90.28
2019-01-27T10:51:59.717Z,90.39
2019-01-27T10:53:07.292Z,88.53
2019-01-27T10:53:59.735Z,91.22
2019-01-27T10:54:59.681Z,91.11
2019-01-27T10:55:59.714Z,90.19
2019-01-27T10:56:59.729Z,89.98
2019-01-27T10:57:59.632Z,90.39
2019-01-27T10:59:07.210Z,90.19
2019-01-27T11:00:00.367Z,88.64
2019-01-27T11:01:07.225Z,89.77
2019-01-27T11:01:59.621Z,90.49
2019-01-27T11:02:59.570Z,91.11
2019-01-27T11:03:59.610Z,90.04
2019-01-27T11:04:59.607Z,90.04
2019-01-27T11:05:59.564Z,90.76
2019-01-27T11:06:59.534Z,89.73
2019-01-27T11:07:59.544Z,89.22
2019-01-27T11:08:59.506Z,90.25
2019-01-27T11:09:59.522Z,89.46
2019-01-27T11:11:00.500Z,88.29
2019-01-27T11:12:07.109Z,90.55
2019-01-27T11:12:59.551Z,90.76
2019-01-27T11:14:07.096Z,90.80
2019-01-27T11:14:59.486Z,90.91
2019-01-27T11:16:08.394Z,89.36
2019-01-27T11:16:59.464Z,89.73
2019-01-27T11:18:07.936Z,90.97
2019-01-27T11:18:59.470Z,91.22
2019-01-27T11:20:06.984Z,92.00
2019-01-27T11:20:59.431Z,92.25
2019-01-27T11:22:07.007Z,90.91
2019-01-27T11:22:59.405Z,91.63
2019-01-27T11:23:59.370Z,92.66
2019-01-27T11:25:06.931Z,93.28
2019-01-27T11:26:01.621Z,93.59
2019-01-27T11:26:59.897Z,92.46
2019-01-27T11:28:06.894Z,92.25
2019-01-27T11:29:00.122Z,92.04
2019-01-27T11:29:59.303Z,92.25
2019-01-27T11:30:59.315Z,93.38
2019-01-27T11:31:59.366Z,93.38
2019-01-27T11:33:07.104Z,93.28
2019-01-27T11:34:09.106Z,92.14
2019-01-27T11:34:59.740Z,92.40
2019-01-27T11:35:59.442Z,93.32
2019-01-27T11:37:00.219Z,94.72
2019-01-27T11:37:59.286Z,94.56
2019-01-27T11:38:59.217Z,93.73
2019-01-27T11:39:59.265Z,94.46
2019-01-27T11:40:59.189Z,95.18
2019-01-27T11:41:59.268Z,94.46
2019-01-27T11:42:59.166Z,94.77
2019-01-27T11:43:59.208Z,94.35
2019-01-27T11:44:59.165Z,93.63
2019-01-27T11:45:59.164Z,93.63
2019-01-27T11:47:00.560Z,94.19
2019-01-27T11:47:59.433Z,95.07
2019-01-27T11:48:59.209Z,94.67
2019-01-27T11:49:59.150Z,95.02
2019-01-27T11:50:59.111Z,95.02
2019-01-27T11:51:59.159Z,95.32
2019-01-27T11:52:59.106Z,95.02
2019-01-27T11:53:59.164Z,95.32
2019-01-27T11:54:59.073Z,95.43
2019-01-27T11:55:59.038Z,95.74
2019-01-27T11:56:59.107Z,95.53
2019-01-27T11:57:59.046Z,95.74
2019-01-27T11:58:59.014Z,95.43
2019-01-27T11:59:58.985Z,95.84
2019-01-27T12:00:58.981Z,96.05
2019-01-27T12:01:58.967Z,96.26
2019-01-27T12:02:59.006Z,95.64
2019-01-27T12:03:58.969Z,95.53
2019-01-27T12:04:58.933Z,96.05
2019-01-27T12:05:58.927Z,96.36
2019-01-27T12:06:58.967Z,96.26
2019-01-27T12:07:59.037Z,96.05
2019-01-27T12:08:58.888Z,96.77
2019-01-27T12:59:41.428Z,97.55
2019-01-27T13:00:42.922Z,97.45
2019-01-27T13:01:40.276Z,97.45
2019-01-27T13:02:40.286Z,96.94
2019-01-27T13:03:40.393Z,97.34
2019-01-27T13:05:56.657Z,96.01
2019-01-27T13:08:13.356Z,96.69
2019-01-27T13:09:21.610Z,96.73
2019-01-27T13:10:20.238Z,96.37
2019-01-27T13:11:11.653Z,96.79
2019-01-27T13:12:13.252Z,96.48
2019-01-27T13:13:12.155Z,96.11
2019-01-27T13:14:11.603Z,94.93
2019-01-27T13:15:11.596Z,95.24
2019-01-27T13:16:12.890Z,95.24
2019-01-27T13:17:18.703Z,94.93
2019-01-27T13:20:28.351Z,94.82
2019-01-27T13:21:27.375Z,94.82
2019-01-27T13:22:39.553Z,95.03
2019-01-27T13:23:27.480Z,95.34
2019-01-27T13:24:27.313Z,94.93
2019-01-27T13:25:27.926Z,94.82
2019-01-27T13:26:27.284Z,95.34
2019-01-27T13:27:27.312Z,95.45
2019-01-27T13:28:27.270Z,95.24
2019-01-27T13:29:27.254Z,96.11
2019-01-27T13:30:34.831Z,95.86
2019-01-27T13:31:27.241Z,94.87
2019-01-27T13:32:34.824Z,95.39
2019-01-27T13:33:27.231Z,96.21
2019-01-27T13:34:27.378Z,95.86
2019-01-27T13:35:38.734Z,95.24
2019-01-27T13:36:27.196Z,95.70
2019-01-27T13:37:34.765Z,96.42
2019-01-27T13:38:27.166Z,96.21
2019-01-27T13:39:34.359Z,96.11
2019-01-27T13:40:34.777Z,96.01
2019-01-27T13:42:42.832Z,96.31
2019-01-27T13:43:50.466Z,96.31
2019-01-27T13:44:50.358Z,96.21
2019-01-27T13:45:50.337Z,96.21
2019-01-27T13:46:42.886Z,96.83
2019-01-27T13:47:50.335Z,97.14
2019-01-27T13:48:42.763Z,96.52
2019-01-27T13:49:50.304Z,96.62
2019-01-27T13:50:42.748Z,96.73
2019-01-27T13:51:50.259Z,97.04
2019-01-27T13:52:42.735Z,96.94
2019-01-27T13:53:50.403Z,97.25
2019-01-27T13:54:42.692Z,97.55
2019-01-27T13:55:50.251Z,97.45
2019-01-27T13:56:43.706Z,97.14
2019-01-27T13:57:50.184Z,97.19
2019-01-27T13:58:42.713Z,97.25
2019-01-27T13:59:51.530Z,97.29
2019-01-27T14:00:42.700Z,97.39
2019-01-27T14:01:50.211Z,97.19
2019-01-27T14:02:42.665Z,97.60
2019-01-27T14:03:50.229Z,97.91
2019-01-27T14:04:48.432Z,98.01
2019-01-27T14:06:52.361Z,97.60
2019-01-27T14:07:52.300Z,97.50
2019-01-27T14:08:52.317Z,97.19
2019-01-27T14:09:52.317Z,97.29
2019-01-27T14:10:59.808Z,97.29
2019-01-27T14:11:52.276Z,97.50
2019-01-27T14:12:59.810Z,97.50
2019-01-27T14:13:52.253Z,97.39
2019-01-27T14:14:52.263Z,97.29
2019-01-27T14:15:52.226Z,96.92
2019-01-27T14:16:52.864Z,97.13
2019-01-27T14:17:52.232Z,96.88
2019-01-27T14:18:52.271Z,96.61
2019-01-27T14:19:52.182Z,97.02
2019-01-27T14:20:59.770Z,96.98
2019-01-27T14:21:52.146Z,96.20
2019-01-27T14:22:52.144Z,96.61
2019-01-27T14:27:39.486Z,97.38
2019-01-27T14:28:39.578Z,97.44
2019-01-27T14:29:40.276Z,97.02
2019-01-27T14:30:39.462Z,97.17
2019-01-27T14:31:39.276Z,96.86
2019-01-27T14:32:39.284Z,96.41
2019-01-27T14:33:39.264Z,96.24
2019-01-27T14:34:39.248Z,96.24
2019-01-27T14:35:39.248Z,96.03
2019-01-27T14:36:39.274Z,96.03
2019-01-27T14:37:39.271Z,96.14
2019-01-27T14:38:39.204Z,95.94
2019-01-27T14:39:39.212Z,96.14
2019-01-27T14:40:39.217Z,96.34
2019-01-27T14:41:39.183Z,96.14
2019-01-27T14:42:39.237Z,96.66
2019-01-27T14:43:39.156Z,97.17
2019-01-27T14:44:39.128Z,97.17
2019-01-27T14:45:39.145Z,97.59
2019-01-27T14:46:39.096Z,97.22
2019-01-27T14:47:39.143Z,97.01
2019-01-27T14:48:39.109Z,97.59
2019-01-27T14:49:39.103Z,97.01
2019-01-27T14:50:39.199Z,97.32
2019-01-27T14:54:22.870Z,97.53
2019-01-27T14:55:22.679Z,97.11
2019-01-27T14:56:22.603Z,96.70
2019-01-27T14:57:22.527Z,97.53
2019-01-27T14:58:22.493Z,97.42
2019-01-27T14:59:22.488Z,97.53
2019-01-27T15:00:22.541Z,97.22
2019-01-27T15:01:22.462Z,97.63
2019-01-27T15:02:22.520Z,97.42
2019-01-27T15:03:22.441Z,97.26
2019-01-27T15:04:22.418Z,97.36
2019-01-27T15:05:22.407Z,97.67
2019-01-27T15:06:22.442Z,97.67
2019-01-27T15:07:22.393Z,97.74
2019-01-27T15:08:22.373Z,97.84
2019-01-27T15:09:22.365Z,97.74
2019-01-27T15:10:22.381Z,98.40
2019-01-27T15:11:22.343Z,98.30
2019-01-27T15:12:22.360Z,98.09
2019-01-27T15:13:22.344Z,98.30
2019-01-27T15:14:22.302Z,98.19
2019-01-27T15:15:22.317Z,98.19
2019-01-27T15:16:22.294Z,98.61
2019-01-27T15:17:22.282Z,98.30
2019-01-27T15:18:22.290Z,98.50
2019-01-27T15:19:22.255Z,98.30
2019-01-27T15:20:22.252Z,98.30
2019-01-27T15:21:22.277Z,97.88
2019-01-27T15:22:22.322Z,97.99
2019-01-27T15:23:22.241Z,98.09